Time;durP1;ratioP1;P1;durP2;ratioP2;P2;SDS_P1;SDS_P2;PMS_P1;PMS_P2;Temp;Humidity;BMP_temperature;BMP_pressure;BME280_temperature;BME280_humidity;BME280_pressure;Samples;Min_cycle;Max_cycle;Signal;HPM_P1;HPM_P2
2021/07/21 00:00:52;;;;;;;8.27;6.30;;;;;;;;;;4985156;28;20188;-58
2021/07/21 00:03:18;;;;;;;9.52;7.03;;;;;;;;;;4986303;28;20634;-60
2021/07/21 00:05:43;;;;;;;8.50;6.65;;;;;;;;;;4987977;28;20228;-58
2021/07/21 00:08:09;;;;;;;10.20;6.30;;;;;;;;;;4988006;28;20218;-59
2021/07/21 00:10:35;;;;;;;7.95;6.18;;;;;;;;;;4987777;28;20212;-58
2021/07/21 00:15:58;;;;;;;8.50;6.55;;;;;;;;;;4982493;28;20203;-57
2021/07/21 00:18:37;;;;;;;8.88;6.20;;;;;;;;;;4978787;28;20192;-57
2021/07/21 00:21:02;;;;;;;7.38;6.03;;;;;;;;;;4986212;28;20216;-59
2021/07/21 00:23:27;;;;;;;7.00;6.05;;;;;;;;;;4987799;28;20261;-57
2021/07/21 00:25:53;;;;;;;7.75;6.03;;;;;;;;;;4988058;28;20218;-60
2021/07/21 00:28:18;;;;;;;7.75;6.38;;;;;;;;;;4986577;28;20562;-58
2021/07/21 00:30:44;;;;;;;8.38;6.03;;;;;;;;;;4991826;28;20223;-57
2021/07/21 00:33:09;;;;;;;9.50;5.82;;;;;;;;;;4990942;28;20211;-57
2021/07/21 00:35:34;;;;;;;8.52;6.35;;;;;;;;;;4987206;28;20734;-58
2021/07/21 00:37:59;;;;;;;7.78;5.80;;;;;;;;;;4984557;28;20276;-56
2021/07/21 00:40:25;;;;;;;8.18;5.80;;;;;;;;;;4987073;28;20215;-58
2021/07/21 00:42:50;;;;;;;7.97;5.80;;;;;;;;;;4987757;28;20208;-58
2021/07/21 00:45:15;;;;;;;6.60;5.85;;;;;;;;;;4995356;28;20185;-58
2021/07/21 00:47:41;;;;;;;7.50;5.43;;;;;;;;;;4990005;28;20191;-57
2021/07/21 00:50:06;;;;;;;10.20;6.25;;;;;;;;;;4987587;28;20184;-57
2021/07/21 00:52:33;;;;;;;8.57;6.47;;;;;;;;;;4987400;28;20226;-56
2021/07/21 00:54:58;;;;;;;9.57;6.20;;;;;;;;;;4988864;28;20275;-56
2021/07/21 00:57:23;;;;;;;8.77;6.60;;;;;;;;;;4996099;28;20280;-59
2021/07/21 00:59:50;;;;;;;8.88;6.13;;;;;;;;;;4988633;28;20430;-58
2021/07/21 01:02:16;;;;;;;8.05;6.50;;;;;;;;;;4988011;28;20196;-58
2021/07/21 01:04:41;;;;;;;9.80;6.45;;;;;;;;;;4987671;28;20275;-57
2021/07/21 01:07:07;;;;;;;8.73;6.63;;;;;;;;;;4994180;28;20231;-57
2021/07/21 01:09:35;;;;;;;9.18;6.95;;;;;;;;;;4991355;28;20199;-57
2021/07/21 01:12:06;;;;;;;8.55;6.40;;;;;;;;;;4985874;28;20188;-58
2021/07/21 01:14:50;;;;;;;9.63;6.40;;;;;;;;;;4987428;28;20215;-57
2021/07/21 01:17:18;;;;;;;9.73;6.38;;;;;;;;;;4989895;28;20558;-56
2021/07/21 01:20:11;;;;;;;9.52;6.88;;;;;;;;;;4990031;28;20184;-59
2021/07/21 01:22:39;;;;;;;9.25;6.60;;;;;;;;;;4980109;28;20212;-59
2021/07/21 01:25:13;;;;;;;10.98;6.40;;;;;;;;;;4991021;28;20191;-58
2021/07/21 01:27:41;;;;;;;8.48;6.40;;;;;;;;;;4984624;28;20203;-58
2021/07/21 01:30:11;;;;;;;7.50;5.65;;;;;;;;;;4989004;28;20290;-60
2021/07/21 01:32:37;;;;;;;8.57;6.07;;;;;;;;;;4977211;28;20684;-59
2021/07/21 01:35:05;;;;;;;8.65;6.55;;;;;;;;;;4987824;28;20271;-59
2021/07/21 01:37:31;;;;;;;8.07;6.25;;;;;;;;;;4997219;28;20183;-59
2021/07/21 01:40:00;;;;;;;7.68;5.85;;;;;;;;;;4990371;28;20178;-57
2021/07/21 01:42:26;;;;;;;9.57;6.55;;;;;;;;;;4988240;28;20204;-57
2021/07/21 01:44:52;;;;;;;8.45;5.93;;;;;;;;;;4988195;28;20675;-57
2021/07/21 01:47:22;;;;;;;8.15;6.20;;;;;;;;;;4988029;28;20176;-58
2021/07/21 01:49:48;;;;;;;8.52;6.15;;;;;;;;;;4989046;28;20187;-60
2021/07/21 01:52:14;;;;;;;9.68;6.65;;;;;;;;;;4987709;28;20219;-57
2021/07/21 01:54:41;;;;;;;8.63;6.35;;;;;;;;;;4991597;28;20191;-57
2021/07/21 01:57:07;;;;;;;8.80;6.65;;;;;;;;;;4986033;28;20848;-57
2021/07/21 01:59:32;;;;;;;9.00;6.50;;;;;;;;;;4989812;28;20183;-57
2021/07/21 02:02:01;;;;;;;10.60;6.85;;;;;;;;;;4984137;28;20180;-58
2021/07/21 02:04:27;;;;;;;12.10;7.28;;;;;;;;;;4984628;28;20283;-58
2021/07/21 02:06:53;;;;;;;9.30;6.30;;;;;;;;;;4987975;28;20184;-59
2021/07/21 02:09:18;;;;;;;10.00;7.60;;;;;;;;;;4994877;28;20188;-57
2021/07/21 02:11:44;;;;;;;9.90;6.90;;;;;;;;;;4984945;28;20195;-57
2021/07/21 02:14:10;;;;;;;9.32;6.82;;;;;;;;;;4985727;28;20297;-59
2021/07/21 02:16:36;;;;;;;8.70;6.95;;;;;;;;;;4988448;28;20180;-58
2021/07/21 02:19:03;;;;;;;11.02;7.15;;;;;;;;;;4987835;28;20180;-59
2021/07/21 02:21:30;;;;;;;9.75;7.30;;;;;;;;;;4982084;28;20317;-57
2021/07/21 02:23:55;;;;;;;9.93;6.65;;;;;;;;;;4987372;28;20211;-56
2021/07/21 02:26:21;;;;;;;8.20;6.30;;;;;;;;;;4990864;28;20172;-57
2021/07/21 02:28:47;;;;;;;11.48;7.25;;;;;;;;;;4988477;28;20183;-57
2021/07/21 02:31:32;;;;;;;7.25;6.18;;;;;;;;;;4987780;28;20229;-58
2021/07/21 02:34:02;;;;;;;11.02;7.35;;;;;;;;;;4987136;28;20220;-56
2021/07/21 02:36:27;;;;;;;9.95;7.68;;;;;;;;;;4984584;28;20351;-56
2021/07/21 02:38:53;;;;;;;10.93;7.65;;;;;;;;;;4986441;28;20192;-60
2021/07/21 02:41:18;;;;;;;9.43;6.90;;;;;;;;;;4995314;28;20837;-57
2021/07/21 02:43:43;;;;;;;11.10;7.30;;;;;;;;;;4989774;28;20208;-57
2021/07/21 02:46:09;;;;;;;10.15;6.80;;;;;;;;;;4986107;28;20286;-57
2021/07/21 02:48:34;;;;;;;9.73;7.35;;;;;;;;;;4986740;28;20188;-58
2021/07/21 02:51:02;;;;;;;10.18;7.65;;;;;;;;;;4989567;28;20223;-59
2021/07/21 02:53:32;;;;;;;8.93;6.63;;;;;;;;;;4981894;28;20231;-58
2021/07/21 02:56:01;;;;;;;8.27;6.85;;;;;;;;;;4988961;28;20172;-60
2021/07/21 02:58:45;;;;;;;9.52;7.45;;;;;;;;;;4991913;28;20199;-58
2021/07/21 03:01:12;;;;;;;10.18;7.20;;;;;;;;;;4990347;28;20267;-57
2021/07/21 03:03:38;;;;;;;11.95;7.47;;;;;;;;;;4993656;28;20210;-58
2021/07/21 03:06:05;;;;;;;8.30;6.72;;;;;;;;;;4986017;28;20192;-59
2021/07/21 03:08:31;;;;;;;8.13;6.40;;;;;;;;;;4994966;28;20268;-57
2021/07/21 03:10:57;;;;;;;8.82;6.88;;;;;;;;;;5004408;28;20636;-58
2021/07/21 03:13:25;;;;;;;10.70;7.97;;;;;;;;;;4981912;28;20212;-57
2021/07/21 03:15:50;;;;;;;12.27;7.70;;;;;;;;;;4983976;28;20187;-57
2021/07/21 03:18:18;;;;;;;10.25;6.95;;;;;;;;;;4988104;28;20628;-58
2021/07/21 03:20:44;;;;;;;9.65;6.60;;;;;;;;;;5000572;23;20756;-74
2021/07/21 03:23:09;;;;;;;8.57;6.68;;;;;;;;;;5005414;28;20658;-74
2021/07/21 03:25:35;;;;;;;13.05;7.47;;;;;;;;;;5005163;28;20199;-74
2021/07/21 03:28:01;;;;;;;8.60;7.28;;;;;;;;;;4989538;28;20697;-73
2021/07/21 03:30:27;;;;;;;10.38;7.13;;;;;;;;;;5008092;28;20183;-73
2021/07/21 03:32:53;;;;;;;11.88;7.68;;;;;;;;;;5007218;28;20207;-74
2021/07/21 03:35:22;;;;;;;11.23;7.75;;;;;;;;;;5009114;28;20639;-73
2021/07/21 03:37:47;;;;;;;11.85;7.25;;;;;;;;;;5010768;28;20265;-73
2021/07/21 03:40:13;;;;;;;10.70;7.60;;;;;;;;;;5018538;28;20214;-74
2021/07/21 03:42:39;;;;;;;10.90;7.43;;;;;;;;;;5011294;28;20190;-74
2021/07/21 03:45:09;;;;;;;12.82;7.57;;;;;;;;;;5009226;28;20196;-74
2021/07/21 03:47:35;;;;;;;11.27;7.50;;;;;;;;;;4993321;28;20698;-74
2021/07/21 03:50:00;;;;;;;9.88;7.45;;;;;;;;;;5009152;28;20210;-73
2021/07/21 03:52:27;;;;;;;10.13;7.07;;;;;;;;;;5008403;28;20250;-73
2021/07/21 03:54:52;;;;;;;12.23;7.88;;;;;;;;;;5018354;28;20210;-74
2021/07/21 03:57:18;;;;;;;9.05;7.38;;;;;;;;;;5009739;28;20217;-73
2021/07/21 03:59:44;;;;;;;10.25;7.40;;;;;;;;;;5008760;28;20188;-73
2021/07/21 04:02:09;;;;;;;10.32;6.95;;;;;;;;;;5010359;28;20223;-73
2021/07/21 04:04:38;;;;;;;8.25;6.15;;;;;;;;;;5011816;28;20218;-73
2021/07/21 04:07:04;;;;;;;11.50;7.47;;;;;;;;;;4994949;28;20180;-73
2021/07/21 04:09:32;;;;;;;11.52;7.90;;;;;;;;;;5013635;28;20183;-73
2021/07/21 04:11:59;;;;;;;9.85;7.22;;;;;;;;;;5009229;28;20206;-73
2021/07/21 04:14:25;;;;;;;9.30;6.93;;;;;;;;;;4995192;28;20208;-73
2021/07/21 04:16:51;;;;;;;9.02;6.85;;;;;;;;;;5007911;28;20699;-73
2021/07/21 04:19:17;;;;;;;10.35;7.15;;;;;;;;;;5014192;28;20198;-73
2021/07/21 04:21:45;;;;;;;9.38;7.22;;;;;;;;;;5003617;28;20207;-73
2021/07/21 04:24:10;;;;;;;11.05;7.35;;;;;;;;;;5004728;28;20196;-73
2021/07/21 04:26:36;;;;;;;13.10;7.65;;;;;;;;;;5002883;28;20199;-73
2021/07/21 04:29:02;;;;;;;9.95;7.28;;;;;;;;;;5021342;28;20197;-73
2021/07/21 04:31:27;;;;;;;9.18;7.22;;;;;;;;;;5008307;28;20231;-73
2021/07/21 04:33:53;;;;;;;9.82;7.15;;;;;;;;;;5005667;28;20235;-73
2021/07/21 04:36:19;;;;;;;9.88;7.53;;;;;;;;;;5007407;28;20655;-74
2021/07/21 04:38:45;;;;;;;11.50;7.72;;;;;;;;;;5011240;28;20187;-73
2021/07/21 04:41:10;;;;;;;9.82;7.28;;;;;;;;;;5009124;28;20199;-73
2021/07/21 04:43:35;;;;;;;11.13;8.10;;;;;;;;;;4989363;28;20195;-73
2021/07/21 04:46:00;;;;;;;11.50;7.22;;;;;;;;;;5006311;28;20180;-73
2021/07/21 04:48:27;;;;;;;9.02;7.15;;;;;;;;;;5008117;28;21033;-73
2021/07/21 04:50:53;;;;;;;10.45;7.45;;;;;;;;;;5014651;28;20363;-73
2021/07/21 04:53:18;;;;;;;8.48;7.15;;;;;;;;;;5010536;28;20247;-73
2021/07/21 04:55:46;;;;;;;10.60;6.93;;;;;;;;;;5013403;28;20214;-73
2021/07/21 04:58:11;;;;;;;9.82;7.70;;;;;;;;;;5009239;28;20184;-73
2021/07/21 05:00:36;;;;;;;11.15;7.35;;;;;;;;;;5007883;28;20207;-73
2021/07/21 05:03:06;;;;;;;10.50;7.72;;;;;;;;;;5017873;28;20190;-73
2021/07/21 05:05:31;;;;;;;10.85;7.80;;;;;;;;;;5003493;28;20638;-74
2021/07/21 05:07:58;;;;;;;10.77;7.20;;;;;;;;;;5003256;28;20211;-74
2021/07/21 05:10:23;;;;;;;11.43;7.55;;;;;;;;;;5003341;28;20192;-74
2021/07/21 05:12:48;;;;;;;12.65;7.50;;;;;;;;;;4999420;28;20293;-73
2021/07/21 05:15:13;;;;;;;8.87;7.53;;;;;;;;;;5013529;28;20588;-74
2021/07/21 05:17:38;;;;;;;10.25;7.10;;;;;;;;;;5008994;28;20422;-73
2021/07/21 05:20:04;;;;;;;10.75;7.32;;;;;;;;;;5011875;28;20188;-73
2021/07/21 05:22:29;;;;;;;9.73;7.47;;;;;;;;;;5002463;28;20668;-74
2021/07/21 05:24:54;;;;;;;10.03;7.33;;;;;;;;;;5003673;28;20171;-73
2021/07/21 05:27:19;;;;;;;11.93;8.20;;;;;;;;;;5002527;28;20505;-73
2021/07/21 05:29:45;;;;;;;9.82;7.25;;;;;;;;;;5006288;28;21259;-73
2021/07/21 05:32:10;;;;;;;9.77;7.50;;;;;;;;;;5002246;28;20239;-73
2021/07/21 05:34:35;;;;;;;11.48;7.82;;;;;;;;;;5011146;28;20466;-72
2021/07/21 05:37:02;;;;;;;10.93;7.50;;;;;;;;;;5006267;28;20242;-73
2021/07/21 05:39:27;;;;;;;11.85;7.85;;;;;;;;;;5001789;28;20561;-73
2021/07/21 05:41:56;;;;;;;10.15;7.45;;;;;;;;;;5002549;28;20211;-73
2021/07/21 05:44:21;;;;;;;12.70;8.38;;;;;;;;;;5004895;28;20662;-73
2021/07/21 05:46:46;;;;;;;11.05;7.78;;;;;;;;;;5007884;28;20191;-72
2021/07/21 05:49:11;;;;;;;12.60;7.55;;;;;;;;;;5000840;28;20225;-73
2021/07/21 05:51:37;;;;;;;11.80;8.10;;;;;;;;;;5002757;28;20562;-73
2021/07/21 05:54:02;;;;;;;11.80;7.80;;;;;;;;;;5005566;28;20462;-73
2021/07/21 05:56:29;;;;;;;9.70;7.05;;;;;;;;;;5000805;28;20187;-73
2021/07/21 05:58:55;;;;;;;10.02;7.45;;;;;;;;;;5010457;28;20414;-74
2021/07/21 06:01:20;;;;;;;12.93;8.07;;;;;;;;;;5006915;28;20758;-73
2021/07/21 06:03:45;;;;;;;9.30;7.47;;;;;;;;;;4996961;28;20642;-72
2021/07/21 06:06:11;;;;;;;14.03;8.20;;;;;;;;;;5012036;28;20422;-73
2021/07/21 06:08:36;;;;;;;12.23;7.72;;;;;;;;;;4985081;28;20874;-73
2021/07/21 06:11:01;;;;;;;13.47;7.37;;;;;;;;;;5010082;28;20282;-73
2021/07/21 06:13:27;;;;;;;12.20;7.90;;;;;;;;;;5002426;28;20466;-74
2021/07/21 06:15:52;;;;;;;13.10;7.05;;;;;;;;;;5002933;28;20219;-74
2021/07/21 06:18:17;;;;;;;10.98;8.05;;;;;;;;;;5010329;28;20270;-74
2021/07/21 06:20:42;;;;;;;12.43;7.85;;;;;;;;;;5005436;28;20295;-73
2021/07/21 06:23:08;;;;;;;10.20;7.47;;;;;;;;;;4998825;28;20218;-73
2021/07/21 06:25:33;;;;;;;13.27;7.75;;;;;;;;;;5001261;28;20892;-73
2021/07/21 06:27:58;;;;;;;11.60;7.60;;;;;;;;;;5004963;28;20674;-73
2021/07/21 06:30:23;;;;;;;11.30;8.17;;;;;;;;;;5007941;28;20477;-73
2021/07/21 06:32:48;;;;;;;10.60;7.35;;;;;;;;;;5001721;28;20481;-73
2021/07/21 06:35:14;;;;;;;13.75;8.02;;;;;;;;;;5004947;28;20491;-74
2021/07/21 06:37:39;;;;;;;13.40;8.02;;;;;;;;;;5009866;28;20196;-73
2021/07/21 06:40:05;;;;;;;11.20;8.20;;;;;;;;;;4996829;28;20175;-73
2021/07/21 06:42:30;;;;;;;14.00;7.53;;;;;;;;;;5000350;28;20794;-74
2021/07/21 06:44:55;;;;;;;14.05;7.95;;;;;;;;;;5013017;28;20675;-74
2021/07/21 06:47:21;;;;;;;11.57;8.18;;;;;;;;;;5000626;28;20195;-73
2021/07/21 06:49:49;;;;;;;10.40;7.50;;;;;;;;;;5010480;28;20190;-74
2021/07/21 06:52:15;;;;;;;10.90;7.60;;;;;;;;;;5007207;28;20191;-73
2021/07/21 06:54:40;;;;;;;9.63;7.13;;;;;;;;;;5005225;28;20202;-73
2021/07/21 06:57:05;;;;;;;12.93;7.93;;;;;;;;;;4986892;28;20314;-74
2021/07/21 06:59:32;;;;;;;11.18;7.50;;;;;;;;;;5007901;28;20232;-73
2021/07/21 07:01:57;;;;;;;13.52;8.65;;;;;;;;;;5007570;28;20294;-73
2021/07/21 07:04:22;;;;;;;10.25;7.60;;;;;;;;;;5007076;28;20318;-73
2021/07/21 07:06:47;;;;;;;14.77;8.20;;;;;;;;;;4988058;28;20233;-73
2021/07/21 07:09:12;;;;;;;15.50;7.75;;;;;;;;;;5001903;28;20434;-73
2021/07/21 07:11:38;;;;;;;11.07;7.63;;;;;;;;;;5000135;28;20859;-73
2021/07/21 07:14:04;;;;;;;13.80;7.85;;;;;;;;;;5005539;28;20200;-74
2021/07/21 07:16:30;;;;;;;9.68;7.47;;;;;;;;;;5006395;28;20179;-74
2021/07/21 07:18:55;;;;;;;10.38;7.43;;;;;;;;;;5011962;28;20183;-74
2021/07/21 07:21:21;;;;;;;11.35;7.25;;;;;;;;;;5007581;28;20679;-74
2021/07/21 07:23:47;;;;;;;9.40;6.88;;;;;;;;;;4994266;28;20682;-75
2021/07/21 07:26:12;;;;;;;11.00;7.40;;;;;;;;;;5010493;28;20190;-74
2021/07/21 07:28:38;;;;;;;12.33;7.57;;;;;;;;;;5008068;28;20707;-73
2021/07/21 07:31:03;;;;;;;13.18;7.80;;;;;;;;;;5009426;28;20450;-73
2021/07/21 07:33:28;;;;;;;13.32;7.97;;;;;;;;;;5010973;28;20282;-73
2021/07/21 07:35:53;;;;;;;11.60;8.68;;;;;;;;;;5013565;28;20651;-73
2021/07/21 07:38:19;;;;;;;11.57;8.13;;;;;;;;;;5008041;28;20256;-73
2021/07/21 07:40:44;;;;;;;19.58;8.50;;;;;;;;;;5005414;28;20200;-74
2021/07/21 07:43:09;;;;;;;15.93;8.88;;;;;;;;;;5004256;28;20179;-75
2021/07/21 07:45:35;;;;;;;12.50;7.82;;;;;;;;;;5008797;28;20605;-73
2021/07/21 07:48:00;;;;;;;12.82;8.88;;;;;;;;;;5007317;28;20188;-74
2021/07/21 07:50:26;;;;;;;12.57;8.85;;;;;;;;;;5019881;28;20176;-74
2021/07/21 07:52:51;;;;;;;14.93;9.13;;;;;;;;;;5017914;28;20210;-77
2021/07/21 07:55:16;;;;;;;14.85;9.55;;;;;;;;;;5003779;28;20187;-76
2021/07/21 07:57:41;;;;;;;12.25;9.48;;;;;;;;;;5002912;28;20234;-76
2021/07/21 08:00:08;;;;;;;14.53;10.10;;;;;;;;;;5008628;28;20188;-76
2021/07/21 08:02:33;;;;;;;15.07;9.75;;;;;;;;;;5009353;28;20519;-75
2021/07/21 08:04:58;;;;;;;13.32;9.07;;;;;;;;;;5003435;28;20196;-75
2021/07/21 08:07:25;;;;;;;12.27;9.43;;;;;;;;;;5004298;28;20217;-75
2021/07/21 08:09:50;;;;;;;12.93;9.20;;;;;;;;;;5015841;28;20480;-75
2021/07/21 08:12:16;;;;;;;13.65;9.82;;;;;;;;;;5008833;28;20198;-74
2021/07/21 08:14:41;;;;;;;11.80;9.30;;;;;;;;;;5005664;28;20364;-75
2021/07/21 08:17:06;;;;;;;19.48;11.40;;;;;;;;;;5004472;28;20951;-75
2021/07/21 08:19:31;;;;;;;15.43;10.55;;;;;;;;;;5010714;28;20262;-76
2021/07/21 08:21:57;;;;;;;14.57;9.75;;;;;;;;;;5004791;28;20211;-80
2021/07/21 08:24:24;;;;;;;16.60;11.68;;;;;;;;;;5007766;28;20429;-79
2021/07/21 08:26:49;;;;;;;14.48;10.27;;;;;;;;;;5009453;28;20183;-74
2021/07/21 08:29:14;;;;;;;13.25;9.95;;;;;;;;;;5005854;28;20186;-74
2021/07/21 08:31:39;;;;;;;16.00;11.07;;;;;;;;;;5002845;28;20633;-74
2021/07/21 08:34:05;;;;;;;15.95;10.68;;;;;;;;;;5011218;28;20548;-75
2021/07/21 08:36:34;;;;;;;14.63;10.70;;;;;;;;;;5005231;28;20187;-75
2021/07/21 08:39:00;;;;;;;13.57;10.27;;;;;;;;;;5008531;28;20598;-74
2021/07/21 08:41:28;;;;;;;21.73;9.88;;;;;;;;;;5007972;28;20211;-75
2021/07/21 08:43:54;;;;;;;12.68;10.65;;;;;;;;;;4999515;28;20597;-75
2021/07/21 08:46:20;;;;;;;18.33;9.85;;;;;;;;;;5006685;28;20179;-74
2021/07/21 08:48:45;;;;;;;14.35;9.68;;;;;;;;;;5012682;28;20249;-75
2021/07/21 08:51:11;;;;;;;14.27;9.27;;;;;;;;;;5006265;28;20255;-75
2021/07/21 08:53:37;;;;;;;14.20;9.32;;;;;;;;;;5009510;28;20277;-76
2021/07/21 08:56:02;;;;;;;12.00;8.00;;;;;;;;;;5006052;28;20193;-76
2021/07/21 08:58:27;;;;;;;12.30;8.45;;;;;;;;;;5004649;28;20179;-75
2021/07/21 09:00:53;;;;;;;17.57;10.37;;;;;;;;;;5005799;28;20212;-76
2021/07/21 09:03:19;;;;;;;15.45;11.02;;;;;;;;;;5005996;28;20860;-75
2021/07/21 09:05:46;;;;;;;16.45;10.02;;;;;;;;;;5009200;28;20180;-75
2021/07/21 09:08:11;;;;;;;13.38;9.52;;;;;;;;;;5009499;28;20200;-75
2021/07/21 09:10:37;;;;;;;16.10;11.77;;;;;;;;;;5002446;28;20196;-76
2021/07/21 09:13:02;;;;;;;15.45;11.63;;;;;;;;;;5003059;28;20306;-76
2021/07/21 09:15:28;;;;;;;14.32;10.55;;;;;;;;;;5003588;28;20215;-76
2021/07/21 09:18:06;;;;;;;13.25;10.77;;;;;;;;;;5016524;28;20179;-78
2021/07/21 09:20:33;;;;;;;15.80;10.93;;;;;;;;;;5009787;28;20217;-75
2021/07/21 09:22:58;;;;;;;16.52;10.93;;;;;;;;;;5004135;28;20187;-80
2021/07/21 09:25:25;;;;;;;17.23;11.48;;;;;;;;;;5014902;28;20197;-74
2021/07/21 09:27:54;;;;;;;14.40;10.43;;;;;;;;;;5003370;28;20254;-75
2021/07/21 09:30:20;;;;;;;25.70;12.20;;;;;;;;;;5002209;28;20242;-75
2021/07/21 09:32:53;;;;;;;16.83;9.77;;;;;;;;;;5022427;22;20703;-53
2021/07/21 09:35:22;;;;;;;16.38;10.52;;;;;;;;;;5002965;28;20241;-54
2021/07/21 09:37:48;;;;;;;17.85;9.88;;;;;;;;;;5004857;28;20644;-54
2021/07/21 09:40:13;;;;;;;17.25;10.30;;;;;;;;;;5001672;28;20315;-54
2021/07/21 09:42:38;;;;;;;12.30;10.00;;;;;;;;;;5007673;28;20622;-54
2021/07/21 09:45:08;;;;;;;13.20;9.35;;;;;;;;;;5005084;28;20184;-53
2021/07/21 09:47:33;;;;;;;15.75;9.00;;;;;;;;;;5007587;28;20558;-54
2021/07/21 09:50:23;;;;;;;13.05;9.15;;;;;;;;;;5010521;28;20176;-54
2021/07/21 09:52:49;;;;;;;14.82;9.98;;;;;;;;;;5007238;28;20242;-54
2021/07/21 09:55:16;;;;;;;14.90;8.48;;;;;;;;;;5007806;28;20186;-54
2021/07/21 09:57:42;;;;;;;11.50;8.18;;;;;;;;;;5005183;28;20233;-54
2021/07/21 10:00:21;;;;;;;11.85;9.13;;;;;;;;;;5008546;28;20203;-53
2021/07/21 10:02:46;;;;;;;13.73;9.07;;;;;;;;;;4995223;28;20534;-53
2021/07/21 10:05:11;;;;;;;9.73;8.70;;;;;;;;;;5006589;28;20183;-54
2021/07/21 10:10:09;;;;;;;11.50;8.25;;;;;;;;;;5009279;28;20267;-54
2021/07/21 10:12:34;;;;;;;8.90;6.35;;;;;;;;;;5004495;28;20391;-54
2021/07/21 10:14:59;;;;;;;8.63;6.90;;;;;;;;;;5002875;28;20236;-54
2021/07/21 10:17:28;;;;;;;9.18;7.03;;;;;;;;;;5009028;28;20437;-54
2021/07/21 10:19:53;;;;;;;13.07;6.63;;;;;;;;;;5008138;28;20249;-54
2021/07/21 10:22:19;;;;;;;11.90;7.53;;;;;;;;;;5016292;28;20262;-54
2021/07/21 10:24:44;;;;;;;10.73;7.82;;;;;;;;;;5025378;28;20191;-54
2021/07/21 10:27:09;;;;;;;15.48;7.65;;;;;;;;;;5026056;28;20184;-54
2021/07/21 10:29:35;;;;;;;9.57;8.15;;;;;;;;;;5021156;28;20179;-54
2021/07/21 10:32:00;;;;;;;13.77;7.97;;;;;;;;;;5026694;28;21283;-54
2021/07/21 10:34:26;;;;;;;10.15;7.93;;;;;;;;;;5024000;28;20261;-54
2021/07/21 10:36:52;;;;;;;12.07;7.30;;;;;;;;;;5006650;28;20179;-54
2021/07/21 10:39:28;;;;;;;10.15;7.72;;;;;;;;;;4991403;28;20309;-54
2021/07/21 10:41:54;;;;;;;9.48;7.40;;;;;;;;;;5006945;28;20202;-54
2021/07/21 10:44:19;;;;;;;9.27;7.22;;;;;;;;;;5003513;28;20183;-54
2021/07/21 10:46:47;;;;;;;9.95;7.13;;;;;;;;;;5006488;28;20580;-53
2021/07/21 10:55:01;;;;;;;13.48;7.30;;;;;;;;;;4987118;28;20202;-55
2021/07/21 11:00:12;;;;;;;10.75;7.00;;;;;;;;;;4995651;28;20249;-54
2021/07/21 11:02:37;;;;;;;9.30;6.60;;;;;;;;;;4997170;28;20678;-55
2021/07/21 11:05:04;;;;;;;15.95;7.65;;;;;;;;;;4995861;28;20176;-56
2021/07/21 11:07:48;;;;;;;9.93;7.10;;;;;;;;;;4993949;28;20278;-55
2021/07/21 11:10:14;;;;;;;23.95;7.70;;;;;;;;;;4994423;28;20179;-54
2021/07/21 11:12:46;;;;;;;8.40;6.70;;;;;;;;;;4991128;28;20183;-55
2021/07/21 11:15:31;;;;;;;9.15;6.95;;;;;;;;;;4980064;28;20281;-54
2021/07/21 11:18:15;;;;;;;12.63;7.38;;;;;;;;;;4980328;28;20283;-55
2021/07/21 11:20:59;;;;;;;10.02;7.10;;;;;;;;;;4993269;28;20782;-55
2021/07/21 11:23:43;;;;;;;11.43;7.47;;;;;;;;;;4990950;28;20192;-54
2021/07/21 11:26:27;;;;;;;15.20;8.00;;;;;;;;;;4991593;28;20207;-54
2021/07/21 11:28:52;;;;;;;13.95;7.07;;;;;;;;;;4991917;28;20196;-55
2021/07/21 11:31:17;;;;;;;12.00;6.00;;;;;;;;;;4990813;28;20222;-55
2021/07/21 11:33:50;;;;;;;9.63;6.65;;;;;;;;;;4986075;28;20208;-55
2021/07/21 11:36:34;;;;;;;6.85;5.47;;;;;;;;;;4992437;28;20188;-55
2021/07/21 11:38:59;;;;;;;10.07;6.53;;;;;;;;;;4989027;28;20820;-55
2021/07/21 11:41:42;;;;;;;11.07;6.53;;;;;;;;;;4986060;28;20676;-54
2021/07/21 11:44:08;;;;;;;9.02;5.57;;;;;;;;;;4994602;28;20480;-54
2021/07/21 11:46:33;;;;;;;12.73;6.40;;;;;;;;;;4979805;28;20195;-55
2021/07/21 11:48:58;;;;;;;9.18;6.32;;;;;;;;;;4993610;28;20191;-55
2021/07/21 11:51:24;;;;;;;9.00;6.25;;;;;;;;;;4976853;28;20524;-54
2021/07/21 11:53:49;;;;;;;8.70;6.20;;;;;;;;;;4996528;28;20203;-56
2021/07/21 11:56:15;;;;;;;8.27;6.40;;;;;;;;;;4992790;28;20187;-55
2021/07/21 11:58:40;;;;;;;10.55;6.82;;;;;;;;;;4993295;28;20571;-55
2021/07/21 12:01:05;;;;;;;10.23;7.10;;;;;;;;;;4990119;28;20869;-55
2021/07/21 12:03:42;;;;;;;7.47;6.15;;;;;;;;;;4999547;28;20204;-55
2021/07/21 12:06:07;;;;;;;7.53;5.88;;;;;;;;;;5009395;28;20207;-55
2021/07/21 12:08:32;;;;;;;9.77;6.07;;;;;;;;;;4989759;28;20226;-55
2021/07/21 12:10:58;;;;;;;9.25;5.95;;;;;;;;;;5009005;28;20570;-55
2021/07/21 12:13:23;;;;;;;9.02;5.63;;;;;;;;;;4992941;28;20227;-55
2021/07/21 12:16:01;;;;;;;8.52;5.97;;;;;;;;;;4991161;28;20229;-55
2021/07/21 12:18:26;;;;;;;7.57;5.45;;;;;;;;;;4988319;28;20182;-55
2021/07/21 12:20:51;;;;;;;7.93;5.47;;;;;;;;;;5010627;28;20200;-55
2021/07/21 12:23:20;;;;;;;8.67;5.27;;;;;;;;;;5010387;28;20237;-55
2021/07/21 12:25:45;;;;;;;11.40;5.75;;;;;;;;;;5001071;28;20505;-55
2021/07/21 12:28:10;;;;;;;8.07;5.85;;;;;;;;;;5000778;28;20837;-55
2021/07/21 12:30:38;;;;;;;6.85;5.38;;;;;;;;;;5010876;28;20257;-54
2021/07/21 12:33:04;;;;;;;8.55;5.55;;;;;;;;;;5009915;28;20572;-54
2021/07/21 12:35:29;;;;;;;8.02;5.50;;;;;;;;;;4999388;28;20187;-54
2021/07/21 12:37:56;;;;;;;10.32;5.53;;;;;;;;;;5000716;28;20176;-55
2021/07/21 12:40:22;;;;;;;9.18;6.20;;;;;;;;;;5008381;28;20191;-55
2021/07/21 12:42:47;;;;;;;6.78;6.07;;;;;;;;;;5006327;28;20178;-55
2021/07/21 12:45:14;;;;;;;8.20;5.95;;;;;;;;;;5004547;28;20191;-55
2021/07/21 12:47:40;;;;;;;7.10;5.40;;;;;;;;;;4989403;28;20717;-55
2021/07/21 12:50:10;;;;;;;8.00;6.00;;;;;;;;;;5016191;28;20270;-55
2021/07/21 12:52:46;;;;;;;9.68;5.90;;;;;;;;;;5010815;28;20214;-54
2021/07/21 12:55:13;;;;;;;8.20;6.07;;;;;;;;;;5011052;28;20595;-54
2021/07/21 12:57:39;;;;;;;11.70;6.55;;;;;;;;;;4993465;28;20239;-55
2021/07/21 13:00:05;;;;;;;8.55;5.95;;;;;;;;;;5009019;28;20212;-54
2021/07/21 13:02:32;;;;;;;10.23;6.90;;;;;;;;;;5005682;28;20667;-55
2021/07/21 13:04:57;;;;;;;8.43;6.28;;;;;;;;;;5003261;28;20234;-55
2021/07/21 13:07:22;;;;;;;8.20;5.95;;;;;;;;;;5008710;28;20183;-54
2021/07/21 13:09:51;;;;;;;9.05;6.25;;;;;;;;;;4993204;28;20183;-55
2021/07/21 13:12:17;;;;;;;10.90;5.88;;;;;;;;;;5004509;28;20206;-55
2021/07/21 13:14:43;;;;;;;8.90;5.97;;;;;;;;;;5009203;28;20210;-55
2021/07/21 13:17:09;;;;;;;7.35;6.25;;;;;;;;;;5003802;28;20674;-55
2021/07/21 13:19:34;;;;;;;9.80;6.57;;;;;;;;;;5005289;28;20226;-55
2021/07/21 13:21:59;;;;;;;7.60;6.20;;;;;;;;;;5004691;28;20226;-55
2021/07/21 13:24:29;;;;;;;8.68;6.03;;;;;;;;;;5007491;28;20199;-55
2021/07/21 13:27:00;;;;;;;7.50;5.90;;;;;;;;;;5005041;28;20195;-55
2021/07/21 13:29:27;;;;;;;10.73;6.20;;;;;;;;;;5003023;28;20219;-55
2021/07/21 13:31:52;;;;;;;9.57;6.63;;;;;;;;;;5006396;28;20315;-54
2021/07/21 13:34:22;;;;;;;9.65;6.97;;;;;;;;;;5009461;28;20206;-55
2021/07/21 13:36:48;;;;;;;9.57;6.47;;;;;;;;;;5004802;28;20249;-55
2021/07/21 13:39:13;;;;;;;7.72;6.72;;;;;;;;;;5007076;28;20187;-55
2021/07/21 13:41:42;;;;;;;11.07;6.63;;;;;;;;;;5007768;28;20257;-54
2021/07/21 13:44:09;;;;;;;9.20;6.93;;;;;;;;;;5005625;28;20231;-55
2021/07/21 13:46:36;;;;;;;13.85;6.88;;;;;;;;;;4986423;28;20183;-54
2021/07/21 13:49:04;;;;;;;11.27;6.93;;;;;;;;;;5009319;28;20242;-55
2021/07/21 13:51:30;;;;;;;9.43;6.65;;;;;;;;;;4988154;28;20741;-54
2021/07/21 13:53:55;;;;;;;12.57;7.03;;;;;;;;;;5000844;28;20269;-54
2021/07/21 13:56:21;;;;;;;10.30;6.73;;;;;;;;;;5005885;28;20176;-55
2021/07/21 13:58:46;;;;;;;9.60;6.53;;;;;;;;;;4988925;28;20974;-55
2021/07/21 14:01:11;;;;;;;9.45;6.72;;;;;;;;;;4989375;28;20200;-54
2021/07/21 14:03:43;;;;;;;9.65;6.63;;;;;;;;;;4991671;28;20266;-55
2021/07/21 14:06:09;;;;;;;8.38;5.80;;;;;;;;;;4985434;28;20183;-54
2021/07/21 14:08:34;;;;;;;10.35;6.03;;;;;;;;;;4988394;28;20289;-55
2021/07/21 14:10:59;;;;;;;9.93;6.70;;;;;;;;;;4992024;28;20694;-55
2021/07/21 14:13:24;;;;;;;7.60;6.50;;;;;;;;;;4980407;28;20503;-56
2021/07/21 14:15:49;;;;;;;8.65;6.07;;;;;;;;;;4997586;28;20237;-55
2021/07/21 14:18:14;;;;;;;9.18;6.88;;;;;;;;;;5005668;28;20190;-54
2021/07/21 14:20:40;;;;;;;10.10;6.63;;;;;;;;;;5008650;28;20238;-55
2021/07/21 14:23:05;;;;;;;10.32;6.30;;;;;;;;;;5004310;28;20442;-55
2021/07/21 14:25:30;;;;;;;7.90;6.20;;;;;;;;;;5003740;28;20189;-55
2021/07/21 14:27:55;;;;;;;8.40;6.25;;;;;;;;;;5006711;28;20469;-55
2021/07/21 14:30:20;;;;;;;9.50;6.20;;;;;;;;;;5006632;28;20472;-55
2021/07/21 14:32:46;;;;;;;10.50;6.23;;;;;;;;;;5003105;28;20434;-55
2021/07/21 14:35:11;;;;;;;8.73;6.40;;;;;;;;;;5007696;28;20440;-55
2021/07/21 14:37:36;;;;;;;9.43;6.43;;;;;;;;;;5009720;28;20686;-55
2021/07/21 14:40:02;;;;;;;9.77;6.70;;;;;;;;;;5005578;28;20214;-55
2021/07/21 14:42:27;;;;;;;10.75;6.80;;;;;;;;;;5004731;28;20282;-55
2021/07/21 14:44:52;;;;;;;8.50;6.20;;;;;;;;;;5011044;28;20512;-55
2021/07/21 14:47:19;;;;;;;9.80;6.67;;;;;;;;;;5005529;28;20201;-55